createdAt,value
2023-01-07T00:02:09.534Z,75.05
2023-01-07T00:04:38.852Z,74.93
2023-01-07T00:07:06.724Z,75.19
2023-01-07T00:09:34.504Z,76.26
2023-01-07T00:12:02.569Z,76.78
2023-01-07T00:14:31.470Z,76.64
2023-01-07T00:16:59.404Z,76.67
2023-01-07T00:19:27.288Z,76.25
2023-01-07T00:21:56.630Z,77.29
2023-01-07T00:24:24.535Z,76.86
2023-01-07T00:26:52.446Z,76.26
2023-01-07T00:29:21.305Z,76.25
2023-01-07T00:31:49.528Z,76.30
2023-01-07T00:34:17.837Z,76.80
2023-01-07T00:36:47.395Z,76.46
2023-01-07T00:39:18.687Z,76.78
2023-01-07T00:42:02.184Z,76.90
2023-01-07T00:44:30.276Z,76.71
2023-01-07T00:46:58.373Z,76.81
2023-01-07T00:49:26.546Z,77.06
2023-01-07T00:51:55.467Z,77.11
2023-01-07T00:54:25.496Z,77.04
2023-01-07T00:56:53.414Z,77.00
2023-01-07T00:59:21.303Z,76.44
2023-01-07T01:01:49.330Z,76.25
2023-01-07T01:04:18.083Z,76.45
2023-01-07T01:06:46.051Z,76.30
2023-01-07T01:09:14.049Z,76.78
2023-01-07T01:11:43.451Z,76.75
2023-01-07T01:14:12.357Z,76.91
2023-01-07T01:16:40.370Z,76.96
2023-01-07T01:19:08.533Z,77.16
2023-01-07T01:21:36.608Z,77.46
2023-01-07T01:24:04.660Z,77.56
2023-01-07T01:26:32.670Z,77.01
2023-01-07T01:29:01.869Z,76.93
2023-01-07T01:31:33.722Z,77.25
2023-01-07T01:34:01.659Z,77.32
2023-01-07T01:36:29.861Z,76.96
2023-01-07T01:38:59.977Z,76.96
2023-01-07T01:41:31.526Z,77.26
2023-01-07T01:44:02.210Z,76.73
2023-01-07T01:46:36.184Z,76.57
2023-01-07T01:49:11.571Z,77.86
2023-01-07T01:51:46.571Z,78.15
2023-01-07T01:54:17.376Z,78.87
2023-01-07T01:56:52.256Z,78.71
2023-01-07T01:59:25.041Z,78.74
2023-01-07T02:01:55.395Z,78.49
2023-01-07T02:04:25.719Z,78.26
2023-01-07T02:06:58.512Z,79.03
2023-01-07T02:09:28.847Z,78.99
2023-01-07T02:12:05.925Z,79.49
2023-01-07T02:14:54.866Z,80.63
2023-01-07T02:17:34.670Z,79.76
2023-01-07T02:20:35.291Z,78.77
2023-01-07T02:23:47.843Z,78.85
2023-01-07T02:26:48.774Z,78.66
2023-01-07T02:30:08.127Z,78.31
2023-01-07T02:32:49.923Z,78.11
2023-01-07T02:35:32.741Z,78.07
2023-01-07T02:38:14.151Z,77.55
2023-01-07T02:40:51.277Z,77.56
2023-01-07T02:43:31.053Z,77.85
2023-01-07T02:46:06.616Z,78.40
2023-01-07T02:48:37.730Z,78.43
2023-01-07T02:51:06.589Z,78.20
2023-01-07T02:53:35.075Z,77.38
2023-01-07T02:56:18.488Z,78.14
2023-01-07T02:59:01.859Z,77.77
2023-01-07T03:01:46.138Z,78.15
2023-01-07T03:04:28.960Z,78.04
2023-01-07T03:07:11.928Z,77.94
2023-01-07T03:09:51.334Z,77.67
2023-01-07T03:12:28.061Z,77.47
2023-01-07T03:15:00.651Z,77.49
2023-01-07T03:17:35.579Z,77.47
2023-01-07T03:20:07.828Z,77.77
2023-01-07T03:22:37.467Z,77.51
2023-01-07T03:25:07.954Z,77.14
2023-01-07T03:27:37.058Z,77.54
2023-01-07T03:30:09.946Z,77.19
2023-01-07T03:32:42.646Z,75.62
2023-01-07T03:35:12.278Z,74.76
2023-01-07T03:37:43.825Z,73.37
2023-01-07T03:40:13.223Z,74.11
2023-01-07T03:42:41.716Z,74.30
2023-01-07T03:45:20.857Z,74.31
2023-01-07T03:47:50.914Z,74.13
2023-01-07T03:50:21.522Z,74.74
2023-01-07T03:52:50.786Z,74.74
2023-01-07T03:55:23.743Z,75.23
2023-01-07T03:57:54.498Z,74.90
2023-01-07T04:00:25.481Z,75.17
2023-01-07T04:03:00.364Z,75.67
2023-01-07T04:05:34.364Z,75.37
2023-01-07T04:08:02.219Z,74.72
2023-01-07T04:10:34.290Z,74.62
2023-01-07T04:13:02.159Z,74.65
2023-01-07T04:15:30.699Z,73.59
2023-01-07T04:17:58.728Z,73.29
2023-01-07T04:20:27.376Z,74.55
2023-01-07T04:22:56.760Z,75.03
2023-01-07T04:25:24.647Z,74.18
2023-01-07T04:27:52.645Z,74.83
2023-01-07T04:30:20.464Z,76.28
2023-01-07T04:32:48.613Z,76.43
2023-01-07T04:35:16.599Z,76.62
2023-01-07T04:37:44.763Z,76.49
2023-01-07T04:40:14.407Z,75.93
2023-01-07T04:42:42.386Z,75.11
2023-01-07T04:45:11.694Z,75.17
2023-01-07T04:47:40.173Z,75.30
2023-01-07T04:50:09.320Z,75.38
2023-01-07T04:52:38.097Z,75.24
2023-01-07T04:55:07.995Z,75.72
2023-01-07T04:57:37.297Z,75.63
2023-01-07T05:00:06.901Z,75.96
2023-01-07T05:02:35.451Z,75.78
2023-01-07T05:05:03.957Z,76.77
2023-01-07T05:07:31.869Z,76.71
2023-01-07T05:10:00.428Z,76.61
2023-01-07T05:12:29.464Z,76.44
2023-01-07T05:14:59.789Z,76.39
2023-01-07T05:17:27.720Z,76.93
2023-01-07T05:19:55.545Z,76.71
2023-01-07T05:22:24.500Z,76.92
2023-01-07T05:24:52.406Z,77.04
2023-01-07T05:27:21.123Z,76.61
2023-01-07T05:29:49.059Z,77.01
2023-01-07T05:32:18.325Z,76.68
2023-01-07T05:34:47.953Z,76.71
2023-01-07T05:37:16.573Z,76.20
2023-01-07T05:39:45.079Z,76.40
2023-01-07T05:42:17.954Z,76.87
2023-01-07T05:44:45.883Z,76.22
2023-01-07T05:47:16.308Z,76.42
2023-01-07T05:49:45.605Z,76.39
2023-01-07T05:52:13.466Z,76.46
2023-01-07T05:54:41.505Z,76.25
2023-01-07T05:57:09.381Z,76.84
2023-01-07T05:59:37.154Z,77.13
2023-01-07T06:02:05.671Z,77.02
2023-01-07T06:04:34.276Z,77.15
2023-01-07T06:07:03.644Z,77.36
2023-01-07T06:09:33.550Z,77.69
2023-01-07T06:12:01.396Z,77.91
2023-01-07T06:14:29.149Z,78.43
2023-01-07T06:16:59.647Z,78.36
2023-01-07T06:19:27.495Z,78.42
2023-01-07T06:21:55.310Z,78.13
2023-01-07T06:24:24.540Z,78.32
2023-01-07T06:26:52.454Z,78.37
2023-01-07T06:29:22.550Z,78.26
2023-01-07T06:31:50.491Z,79.24
2023-01-07T06:34:20.440Z,79.64
2023-01-07T06:36:48.325Z,79.39
2023-01-07T06:39:16.384Z,79.51
2023-01-07T06:41:45.586Z,78.70
2023-01-07T06:44:13.381Z,78.57
2023-01-07T06:46:41.304Z,78.38
2023-01-07T06:49:09.236Z,78.56
2023-01-07T06:51:37.191Z,78.50
2023-01-07T06:54:05.212Z,78.62
2023-01-07T06:56:38.508Z,78.62
2023-01-07T06:59:12.728Z,78.25
2023-01-07T07:01:41.774Z,78.09
2023-01-07T07:04:09.940Z,78.34
2023-01-07T07:06:37.920Z,78.03
2023-01-07T07:09:05.793Z,77.59
2023-01-07T07:11:33.704Z,77.24
2023-01-07T07:14:01.620Z,77.49
2023-01-07T07:16:32.638Z,77.19
2023-01-07T07:19:00.661Z,76.80
2023-01-07T07:21:28.598Z,76.92
2023-01-07T07:23:56.491Z,76.51
2023-01-07T07:26:24.312Z,73.61
2023-01-07T07:28:52.187Z,73.63
2023-01-07T07:31:20.096Z,73.11
2023-01-07T07:33:49.294Z,71.85
2023-01-07T07:36:17.183Z,72.22
2023-01-07T07:38:45.056Z,72.79
2023-01-07T07:41:14.994Z,71.69
2023-01-07T07:43:42.951Z,72.57
2023-01-07T07:46:10.888Z,72.15
2023-01-07T07:48:38.758Z,72.20
2023-01-07T07:51:08.310Z,71.15
2023-01-07T07:53:36.204Z,71.66
2023-01-07T07:56:04.040Z,70.73
2023-01-07T07:58:32.084Z,70.79
2023-01-07T08:01:00.015Z,70.67
2023-01-07T08:03:30.573Z,70.16
2023-01-07T08:05:59.653Z,69.99
2023-01-07T08:08:28.998Z,69.66
2023-01-07T08:10:57.400Z,70.41
2023-01-07T08:13:25.862Z,70.12
2023-01-07T08:15:53.825Z,69.51
2023-01-07T08:18:21.740Z,70.04
2023-01-07T08:20:49.673Z,69.70
2023-01-07T08:23:17.978Z,69.86
2023-01-07T08:25:47.163Z,70.11
2023-01-07T08:28:15.017Z,69.52
2023-01-07T08:30:44.050Z,69.99
2023-01-07T08:33:12.082Z,69.62
2023-01-07T08:35:39.848Z,69.73
2023-01-07T08:38:09.270Z,69.37
2023-01-07T08:40:38.464Z,69.34
2023-01-07T08:43:08.968Z,69.19
2023-01-07T08:45:37.378Z,69.33
2023-01-07T08:48:08.169Z,69.41
2023-01-07T08:50:35.983Z,69.15
2023-01-07T08:53:03.867Z,68.85
2023-01-07T08:55:31.658Z,69.03
2023-01-07T08:57:59.733Z,69.87
2023-01-07T09:00:28.939Z,69.17
2023-01-07T09:02:56.907Z,69.10
2023-01-07T09:05:26.854Z,69.36
2023-01-07T09:07:55.650Z,68.63
2023-01-07T09:10:26.523Z,69.09
2023-01-07T09:12:54.377Z,68.92
2023-01-07T09:15:22.351Z,69.19
2023-01-07T09:17:51.463Z,68.57
2023-01-07T09:20:20.093Z,68.73
2023-01-07T09:22:47.987Z,68.17
2023-01-07T09:25:16.403Z,67.89
2023-01-07T09:27:45.619Z,68.31
2023-01-07T09:30:14.076Z,67.99
2023-01-07T09:32:44.512Z,67.35
2023-01-07T09:35:15.482Z,67.79
2023-01-07T09:37:43.375Z,67.96
2023-01-07T09:40:19.722Z,67.12
2023-01-07T09:42:56.349Z,67.07
2023-01-07T09:45:28.302Z,66.61
2023-01-07T09:47:59.259Z,66.68
2023-01-07T09:50:42.101Z,67.27
2023-01-07T09:53:16.127Z,67.59
2023-01-07T09:56:10.869Z,67.61
2023-01-07T09:58:33.335Z,67.08
2023-01-07T10:01:09.198Z,68.41
2023-01-07T10:03:52.294Z,68.28
2023-01-07T10:06:42.237Z,67.47
2023-01-07T10:09:22.952Z,67.20
2023-01-07T10:12:00.796Z,67.04
2023-01-07T10:15:04.359Z,67.15
2023-01-07T10:17:43.583Z,66.51
2023-01-07T10:20:20.707Z,66.75
2023-01-07T10:22:54.815Z,66.50
2023-01-07T10:25:27.347Z,65.28
2023-01-07T10:27:59.816Z,65.45
2023-01-07T10:30:31.490Z,65.50
2023-01-07T10:33:12.080Z,63.30
2023-01-07T10:35:41.698Z,63.43
2023-01-07T10:38:16.252Z,62.66
2023-01-07T10:40:48.868Z,63.87
2023-01-07T10:43:27.447Z,63.54
2023-01-07T10:46:18.800Z,64.14
2023-01-07T10:49:10.382Z,64.19
2023-01-07T10:51:51.755Z,63.94
2023-01-07T10:54:38.303Z,62.77
2023-01-07T10:57:11.339Z,61.70
2023-01-07T10:59:39.766Z,61.99
2023-01-07T11:02:17.933Z,61.91
2023-01-07T11:04:46.059Z,61.34
2023-01-07T11:07:24.067Z,61.17
2023-01-07T11:09:54.604Z,60.59
2023-01-07T11:12:33.841Z,60.31
2023-01-07T11:15:06.201Z,60.62
2023-01-07T11:17:38.670Z,59.63
2023-01-07T11:20:08.100Z,59.25
2023-01-07T11:22:38.098Z,58.28
2023-01-07T11:25:29.129Z,57.73
2023-01-07T11:28:00.082Z,58.17
2023-01-07T11:30:30.044Z,57.27
2023-01-07T11:33:01.556Z,57.27
2023-01-07T11:35:31.859Z,59.04
2023-01-07T11:38:02.127Z,59.45
2023-01-07T11:40:32.870Z,59.58
2023-01-07T11:43:02.631Z,59.33
2023-01-07T11:45:34.034Z,58.97
2023-01-07T11:48:08.003Z,58.66
2023-01-07T11:50:38.616Z,57.54
2023-01-07T11:53:28.054Z,57.28
2023-01-07T11:56:00.627Z,57.40
2023-01-07T11:58:31.252Z,57.67
2023-01-07T12:01:21.587Z,57.42
2023-01-07T12:04:14.604Z,55.96
2023-01-07T12:06:47.132Z,55.56
2023-01-07T12:09:23.841Z,55.29
2023-01-07T12:11:54.704Z,55.96
2023-01-07T12:14:31.529Z,56.06
2023-01-07T12:17:11.068Z,54.31
2023-01-07T12:20:08.267Z,54.76
2023-01-07T12:22:45.950Z,55.28
2023-01-07T12:25:36.979Z,55.81
2023-01-07T12:28:12.875Z,55.97
2023-01-07T12:31:19.183Z,55.86
2023-01-07T12:34:04.986Z,56.71
2023-01-07T12:36:43.268Z,57.45
2023-01-07T12:39:20.238Z,56.35
2023-01-07T12:41:58.111Z,56.59
2023-01-07T12:44:28.079Z,55.84
2023-01-07T12:47:30.742Z,55.96
2023-01-07T12:49:59.868Z,56.17
2023-01-07T12:52:37.759Z,56.51
2023-01-07T12:55:14.754Z,56.41
2023-01-07T12:57:45.352Z,56.19
2023-01-07T13:00:20.120Z,56.95
2023-01-07T13:02:54.469Z,56.91
2023-01-07T13:05:26.205Z,55.69
2023-01-07T13:07:58.051Z,56.84
2023-01-07T13:10:29.568Z,57.38
2023-01-07T13:13:02.412Z,57.06
2023-01-07T13:15:33.928Z,57.71
2023-01-07T13:18:13.987Z,57.40
2023-01-07T13:21:06.901Z,57.34
2023-01-07T13:24:07.208Z,56.98
2023-01-07T13:26:45.920Z,56.75
2023-01-07T13:29:28.777Z,57.10
2023-01-07T13:32:28.966Z,57.45
2023-01-07T13:35:18.734Z,58.00
2023-01-07T13:38:01.192Z,57.14
2023-01-07T13:40:48.841Z,57.50
2023-01-07T13:43:30.380Z,57.52
2023-01-07T13:46:01.395Z,57.64
2023-01-07T13:48:31.030Z,58.08
2023-01-07T13:51:01.128Z,58.08
2023-01-07T13:53:34.924Z,57.82
2023-01-07T13:56:37.853Z,58.11
2023-01-07T13:59:27.983Z,58.34
2023-01-07T14:02:22.185Z,58.21
2023-01-07T14:05:04.149Z,58.74
2023-01-07T14:07:32.875Z,58.52
2023-01-07T14:10:00.758Z,58.32
2023-01-07T14:13:05.993Z,57.89
2023-01-07T14:16:01.293Z,58.78
2023-01-07T14:19:04.147Z,57.49
2023-01-07T14:21:57.013Z,58.37
2023-01-07T14:24:56.081Z,58.01
2023-01-07T14:27:47.252Z,58.44
2023-01-07T14:30:21.519Z,58.79
2023-01-07T14:32:58.143Z,59.32
2023-01-07T14:35:32.993Z,59.63
2023-01-07T14:38:02.398Z,59.35
2023-01-07T14:41:07.718Z,59.58
2023-01-07T14:44:00.153Z,59.57
2023-01-07T14:46:53.588Z,59.84
2023-01-07T14:49:51.014Z,60.35
2023-01-07T14:52:50.253Z,60.20
2023-01-07T14:55:32.285Z,59.88
2023-01-07T14:58:23.666Z,60.34
2023-01-07T15:01:13.890Z,61.14
2023-01-07T15:04:09.302Z,60.79
2023-01-07T15:06:39.279Z,61.97
2023-01-07T15:09:29.451Z,62.17
2023-01-07T15:12:20.271Z,61.89
2023-01-07T15:15:11.173Z,61.82
2023-01-07T15:17:40.382Z,62.03
2023-01-07T15:20:10.293Z,62.27
2023-01-07T15:22:53.095Z,62.42
2023-01-07T15:25:33.568Z,61.62
2023-01-07T15:28:12.165Z,62.21
2023-01-07T15:30:51.372Z,62.24
2023-01-07T15:33:41.898Z,62.34
2023-01-07T15:36:13.880Z,62.69
2023-01-07T15:38:45.964Z,62.79
2023-01-07T15:41:30.739Z,63.33
2023-01-07T15:44:02.183Z,63.10
2023-01-07T15:46:32.191Z,63.09
2023-01-07T15:49:14.565Z,62.97
2023-01-07T15:51:44.590Z,63.55
2023-01-07T15:54:30.352Z,63.56
2023-01-07T15:57:01.459Z,64.79
2023-01-07T15:59:33.246Z,65.70
2023-01-07T16:02:07.336Z,65.76
2023-01-07T16:04:38.580Z,65.96
2023-01-07T16:07:06.646Z,66.44
2023-01-07T16:09:35.317Z,66.72
2023-01-07T16:12:03.256Z,67.00
2023-01-07T16:14:38.064Z,67.01
2023-01-07T16:17:16.448Z,66.84
2023-01-07T16:19:44.421Z,66.49
2023-01-07T16:22:16.502Z,66.42
2023-01-07T16:24:50.624Z,65.87
2023-01-07T16:27:24.108Z,66.20
2023-01-07T16:29:55.931Z,65.94
2023-01-07T16:32:25.574Z,66.22
2023-01-07T16:35:07.555Z,66.56
2023-01-07T16:37:39.552Z,67.14
2023-01-07T16:40:19.033Z,66.90
2023-01-07T16:42:49.172Z,67.46
2023-01-07T16:45:27.601Z,67.43
2023-01-07T16:48:17.955Z,67.46
2023-01-07T16:50:47.543Z,67.43
2023-01-07T16:53:30.590Z,68.02
2023-01-07T16:56:14.691Z,67.81
2023-01-07T16:58:48.728Z,67.29
2023-01-07T17:01:20.458Z,67.90
2023-01-07T17:03:56.546Z,67.75
2023-01-07T17:06:29.994Z,67.97
2023-01-07T17:08:58.779Z,68.13
2023-01-07T17:11:32.734Z,67.98
2023-01-07T17:14:03.011Z,68.22
2023-01-07T17:16:33.641Z,68.04
2023-01-07T17:19:26.177Z,68.11
2023-01-07T17:21:54.612Z,68.86
2023-01-07T17:24:50.589Z,68.91
2023-01-07T17:27:26.850Z,69.30
2023-01-07T17:29:54.958Z,68.82
2023-01-07T17:32:25.219Z,69.65
2023-01-07T17:34:53.216Z,69.96
2023-01-07T17:37:21.366Z,70.33
2023-01-07T17:39:51.315Z,71.33
2023-01-07T17:42:42.344Z,71.83
2023-01-07T17:45:16.855Z,71.20
2023-01-07T17:47:46.333Z,71.57
2023-01-07T17:50:15.802Z,71.53
2023-01-07T17:52:46.278Z,71.32
2023-01-07T17:55:16.316Z,72.04
2023-01-07T17:57:44.207Z,71.53
2023-01-07T18:00:21.188Z,70.67
2023-01-07T18:02:51.685Z,70.64
2023-01-07T18:05:21.379Z,71.50
2023-01-07T18:07:50.370Z,70.99
2023-01-07T18:10:20.138Z,71.51
2023-01-07T18:12:47.645Z,71.59
2023-01-07T18:15:20.749Z,70.79
2023-01-07T18:17:50.153Z,71.10
2023-01-07T18:20:19.610Z,70.59
2023-01-07T18:22:48.080Z,70.92
2023-01-07T18:25:18.447Z,71.30
2023-01-07T18:27:46.924Z,71.53
2023-01-07T18:30:16.883Z,72.24
2023-01-07T18:32:45.570Z,71.42
2023-01-07T18:35:15.238Z,72.62
2023-01-07T18:37:43.001Z,71.98
2023-01-07T18:40:11.490Z,72.73
2023-01-07T18:42:39.256Z,73.40
2023-01-07T18:45:10.720Z,73.89
2023-01-07T18:47:38.543Z,74.41
2023-01-07T18:50:08.488Z,73.74
2023-01-07T18:52:39.565Z,73.25
2023-01-07T18:55:08.854Z,72.77
2023-01-07T18:57:37.017Z,72.79
2023-01-07T19:00:06.221Z,73.73
2023-01-07T19:02:33.968Z,74.06
2023-01-07T19:05:01.735Z,73.51
2023-01-07T19:07:30.569Z,73.41
2023-01-07T19:10:02.174Z,73.37
2023-01-07T19:12:30.011Z,72.77
2023-01-07T19:14:57.769Z,72.86
2023-01-07T19:17:25.612Z,73.36
2023-01-07T19:19:53.387Z,73.66
2023-01-07T19:22:21.314Z,74.25
2023-01-07T19:24:49.093Z,75.07
2023-01-07T19:27:22.011Z,75.82
2023-01-07T19:29:50.054Z,75.90
2023-01-07T19:32:17.909Z,75.41
2023-01-07T19:34:45.814Z,76.03
2023-01-07T19:37:13.691Z,75.37
2023-01-07T19:39:41.576Z,75.09
2023-01-07T19:42:09.937Z,75.64
2023-01-07T19:44:41.281Z,75.78
2023-01-07T19:47:09.397Z,75.48
2023-01-07T19:49:37.159Z,75.83
2023-01-07T19:52:05.112Z,76.05
2023-01-07T19:54:32.879Z,75.33
2023-01-07T19:57:00.702Z,74.65
2023-01-07T19:59:28.447Z,74.96
2023-01-07T20:01:58.020Z,76.42
2023-01-07T20:04:27.299Z,77.79
2023-01-07T20:06:55.466Z,78.85
2023-01-07T20:09:23.396Z,79.58
2023-01-07T20:11:51.237Z,79.20
2023-01-07T20:14:19.175Z,78.96
2023-01-07T20:16:46.991Z,79.61
2023-01-07T20:19:16.221Z,78.25
2023-01-07T20:21:44.019Z,76.53
2023-01-07T20:24:13.148Z,77.31
2023-01-07T20:26:41.609Z,78.40
2023-01-07T20:29:09.492Z,76.65
2023-01-07T20:31:37.439Z,76.99
2023-01-07T20:34:05.383Z,76.73
2023-01-07T20:36:34.612Z,78.07
2023-01-07T20:39:05.918Z,78.11
2023-01-07T20:41:35.749Z,79.44
2023-01-07T20:44:05.484Z,79.13
2023-01-07T20:46:35.767Z,79.80
2023-01-07T20:49:04.712Z,79.77
2023-01-07T20:51:34.360Z,80.40
2023-01-07T20:54:02.319Z,80.48
2023-01-07T20:56:32.424Z,80.00
2023-01-07T20:59:01.783Z,81.03
2023-01-07T21:01:32.296Z,81.12
2023-01-07T21:04:01.824Z,80.02
2023-01-07T21:06:29.744Z,80.03
2023-01-07T21:08:59.040Z,79.94
2023-01-07T21:11:27.047Z,79.75
2023-01-07T21:13:56.301Z,80.27
2023-01-07T21:16:25.165Z,81.05
2023-01-07T21:18:53.004Z,80.94
2023-01-07T21:21:23.986Z,80.09
2023-01-07T21:23:52.183Z,81.13
2023-01-07T21:26:21.469Z,80.91
2023-01-07T21:28:49.453Z,80.50
2023-01-07T21:31:17.826Z,81.76
2023-01-07T21:33:45.761Z,80.92
2023-01-07T21:36:15.256Z,80.93
2023-01-07T21:38:43.951Z,80.55
2023-01-07T21:41:13.994Z,80.20
2023-01-07T21:43:43.595Z,79.26
2023-01-07T21:46:12.239Z,78.41
2023-01-07T21:48:41.606Z,77.94
2023-01-07T21:51:12.153Z,77.73
2023-01-07T21:53:40.049Z,78.03
2023-01-07T21:56:10.426Z,78.11
2023-01-07T21:58:38.747Z,77.99
2023-01-07T22:01:09.336Z,77.87
2023-01-07T22:03:37.988Z,77.85
2023-01-07T22:06:11.640Z,77.28
2023-01-07T22:08:39.425Z,77.62
2023-01-07T22:11:07.714Z,77.90
2023-01-07T22:13:35.504Z,76.78
2023-01-07T22:16:05.472Z,77.10
2023-01-07T22:18:34.761Z,77.39
2023-01-07T22:21:02.587Z,77.09
2023-01-07T22:23:30.379Z,77.39
2023-01-07T22:26:03.423Z,77.36
2023-01-07T22:28:32.999Z,77.24
2023-01-07T22:31:04.161Z,77.57
2023-01-07T22:33:31.878Z,77.25
2023-01-07T22:36:01.194Z,77.35
2023-01-07T22:38:29.884Z,77.11
2023-01-07T22:40:58.061Z,76.59
2023-01-07T22:43:26.783Z,76.98
2023-01-07T22:45:59.492Z,77.23
2023-01-07T22:48:33.185Z,77.07
2023-01-07T22:51:06.865Z,78.36
2023-01-07T22:53:34.705Z,77.85
2023-01-07T22:56:04.355Z,77.83
2023-01-07T22:58:32.277Z,77.53
2023-01-07T23:01:14.048Z,77.19
2023-01-07T23:03:42.717Z,76.52
2023-01-07T23:06:14.580Z,76.80
2023-01-07T23:08:43.685Z,76.80
2023-01-07T23:11:31.915Z,77.25
2023-01-07T23:13:59.898Z,76.61
2023-01-07T23:16:27.884Z,77.09
2023-01-07T23:18:55.747Z,76.33
2023-01-07T23:21:27.056Z,76.25
2023-01-07T23:23:54.860Z,77.63
2023-01-07T23:26:22.693Z,78.22
2023-01-07T23:28:50.467Z,79.07
2023-01-07T23:31:18.416Z,79.44
2023-01-07T23:33:46.235Z,78.62
2023-01-07T23:36:14.048Z,78.16
2023-01-07T23:38:43.835Z,77.75
2023-01-07T23:41:12.585Z,77.33
2023-01-07T23:43:40.352Z,77.57
2023-01-07T23:46:08.879Z,76.88
2023-01-07T23:48:38.192Z,76.90
2023-01-07T23:51:08.531Z,77.94
2023-01-07T23:53:39.219Z,79.18
2023-01-07T23:56:09.014Z,78.21
2023-01-07T23:58:37.519Z,77.89
